sensor_id;sensor_type;location;lat;lon;timestamp;temperature;humidity
79187;SHT31;68762;51.980;5.646;2024-01-30T00:00:16;10.8;70.2
79187;SHT31;68762;51.980;5.646;2024-01-30T00:02:45;10.8;70.2
79187;SHT31;68762;51.980;5.646;2024-01-30T00:05:14;10.8;70.3
79187;SHT31;68762;51.980;5.646;2024-01-30T00:07:42;10.8;70.3
79187;SHT31;68762;51.980;5.646;2024-01-30T00:10:11;10.8;70.4
79187;SHT31;68762;51.980;5.646;2024-01-30T00:12:39;10.8;70.4
79187;SHT31;68762;51.980;5.646;2024-01-30T00:15:09;10.8;70.4
79187;SHT31;68762;51.980;5.646;2024-01-30T00:17:38;10.7;70.4
79187;SHT31;68762;51.980;5.646;2024-01-30T00:20:07;10.7;70.4
79187;SHT31;68762;51.980;5.646;2024-01-30T00:22:36;10.7;70.4
79187;SHT31;68762;51.980;5.646;2024-01-30T00:25:05;10.7;70.3
79187;SHT31;68762;51.980;5.646;2024-01-30T00:27:33;10.7;70.3
79187;SHT31;68762;51.980;5.646;2024-01-30T00:30:02;10.7;70.2
79187;SHT31;68762;51.980;5.646;2024-01-30T00:32:31;10.7;70.2
79187;SHT31;68762;51.980;5.646;2024-01-30T00:34:59;10.7;70.1
79187;SHT31;68762;51.980;5.646;2024-01-30T00:37:28;10.7;70.2
79187;SHT31;68762;51.980;5.646;2024-01-30T00:39:58;10.7;69.9
79187;SHT31;68762;51.980;5.646;2024-01-30T00:42:26;10.6;70.1
79187;SHT31;68762;51.980;5.646;2024-01-30T00:44:57;10.6;70.0
79187;SHT31;68762;51.980;5.646;2024-01-30T00:47:27;10.6;70.0
79187;SHT31;68762;51.980;5.646;2024-01-30T00:49:56;10.6;69.9
79187;SHT31;68762;51.980;5.646;2024-01-30T00:52:25;10.6;69.7
79187;SHT31;68762;51.980;5.646;2024-01-30T00:54:53;10.6;69.6
79187;SHT31;68762;51.980;5.646;2024-01-30T00:57:22;10.6;69.6
79187;SHT31;68762;51.980;5.646;2024-01-30T00:59:50;10.6;69.7
79187;SHT31;68762;51.980;5.646;2024-01-30T01:02:19;10.5;69.4
79187;SHT31;68762;51.980;5.646;2024-01-30T01:04:47;10.5;69.6
79187;SHT31;68762;51.980;5.646;2024-01-30T01:07:16;10.5;69.5
79187;SHT31;68762;51.980;5.646;2024-01-30T01:09:45;10.5;69.6
79187;SHT31;68762;51.980;5.646;2024-01-30T01:12:14;10.5;69.8
79187;SHT31;68762;51.980;5.646;2024-01-30T01:14:42;10.5;69.9
79187;SHT31;68762;51.980;5.646;2024-01-30T01:17:11;10.4;69.8
79187;SHT31;68762;51.980;5.646;2024-01-30T01:19:40;10.4;69.7
79187;SHT31;68762;51.980;5.646;2024-01-30T01:22:09;10.4;69.8
79187;SHT31;68762;51.980;5.646;2024-01-30T01:24:37;10.4;69.7
79187;SHT31;68762;51.980;5.646;2024-01-30T01:27:06;10.4;69.7
79187;SHT31;68762;51.980;5.646;2024-01-30T01:29:34;10.4;69.5
79187;SHT31;68762;51.980;5.646;2024-01-30T01:32:03;10.3;69.6
79187;SHT31;68762;51.980;5.646;2024-01-30T01:34:32;10.3;69.5
79187;SHT31;68762;51.980;5.646;2024-01-30T01:37:00;10.3;69.6
79187;SHT31;68762;51.980;5.646;2024-01-30T01:39:31;10.3;69.8
79187;SHT31;68762;51.980;5.646;2024-01-30T01:41:59;10.3;69.6
79187;SHT31;68762;51.980;5.646;2024-01-30T01:44:28;10.3;69.6
79187;SHT31;68762;51.980;5.646;2024-01-30T01:46:57;10.2;69.7
79187;SHT31;68762;51.980;5.646;2024-01-30T01:49:29;10.2;69.7
79187;SHT31;68762;51.980;5.646;2024-01-30T01:51:58;10.2;69.6
79187;SHT31;68762;51.980;5.646;2024-01-30T01:54:28;10.2;69.5
79187;SHT31;68762;51.980;5.646;2024-01-30T01:56:57;10.2;69.4
79187;SHT31;68762;51.980;5.646;2024-01-30T01:59:26;10.2;69.6
79187;SHT31;68762;51.980;5.646;2024-01-30T02:01:55;10.1;69.7
79187;SHT31;68762;51.980;5.646;2024-01-30T02:04:24;10.1;69.6
79187;SHT31;68762;51.980;5.646;2024-01-30T02:06:52;10.1;69.7
79187;SHT31;68762;51.980;5.646;2024-01-30T02:09:21;10.1;69.7
79187;SHT31;68762;51.980;5.646;2024-01-30T02:11:50;10.1;69.7
79187;SHT31;68762;51.980;5.646;2024-01-30T02:14:19;10.0;69.7
79187;SHT31;68762;51.980;5.646;2024-01-30T02:16:47;10.0;69.8
79187;SHT31;68762;51.980;5.646;2024-01-30T02:19:16;10.0;69.8
79187;SHT31;68762;51.980;5.646;2024-01-30T02:21:45;10.0;69.6
79187;SHT31;68762;51.980;5.646;2024-01-30T02:24:14;10.0;69.7
79187;SHT31;68762;51.980;5.646;2024-01-30T02:26:44;9.9;69.7
79187;SHT31;68762;51.980;5.646;2024-01-30T02:29:12;9.9;69.8
79187;SHT31;68762;51.980;5.646;2024-01-30T02:31:41;9.9;69.8
79187;SHT31;68762;51.980;5.646;2024-01-30T02:34:09;9.9;69.7
79187;SHT31;68762;51.980;5.646;2024-01-30T02:36:38;9.9;69.7
79187;SHT31;68762;51.980;5.646;2024-01-30T02:39:06;9.9;69.7
79187;SHT31;68762;51.980;5.646;2024-01-30T02:41:35;9.9;69.7
79187;SHT31;68762;51.980;5.646;2024-01-30T02:44:04;9.9;69.7
79187;SHT31;68762;51.980;5.646;2024-01-30T02:46:32;9.9;69.8
79187;SHT31;68762;51.980;5.646;2024-01-30T02:49:01;9.9;69.8
79187;SHT31;68762;51.980;5.646;2024-01-30T02:51:29;9.9;69.8
79187;SHT31;68762;51.980;5.646;2024-01-30T02:53:58;9.9;69.9
79187;SHT31;68762;51.980;5.646;2024-01-30T02:56:26;9.9;69.7
79187;SHT31;68762;51.980;5.646;2024-01-30T02:58:55;9.9;69.7
79187;SHT31;68762;51.980;5.646;2024-01-30T03:01:23;9.9;69.6
79187;SHT31;68762;51.980;5.646;2024-01-30T03:03:52;9.9;69.6
79187;SHT31;68762;51.980;5.646;2024-01-30T03:06:21;9.9;69.5
79187;SHT31;68762;51.980;5.646;2024-01-30T03:08:49;9.9;69.6
79187;SHT31;68762;51.980;5.646;2024-01-30T03:11:20;9.8;69.5
79187;SHT31;68762;51.980;5.646;2024-01-30T03:13:48;9.8;69.6
79187;SHT31;68762;51.980;5.646;2024-01-30T03:16:17;9.8;69.6
79187;SHT31;68762;51.980;5.646;2024-01-30T03:18:45;9.8;69.6
79187;SHT31;68762;51.980;5.646;2024-01-30T03:21:14;9.8;69.8
79187;SHT31;68762;51.980;5.646;2024-01-30T03:23:43;9.8;69.8
79187;SHT31;68762;51.980;5.646;2024-01-30T03:26:11;9.8;69.7
79187;SHT31;68762;51.980;5.646;2024-01-30T03:28:41;9.8;69.8
79187;SHT31;68762;51.980;5.646;2024-01-30T03:31:10;9.8;69.8
79187;SHT31;68762;51.980;5.646;2024-01-30T03:33:38;9.8;69.8
79187;SHT31;68762;51.980;5.646;2024-01-30T03:36:08;9.8;69.8
79187;SHT31;68762;51.980;5.646;2024-01-30T03:38:38;9.8;69.7
79187;SHT31;68762;51.980;5.646;2024-01-30T03:41:09;9.8;69.7
79187;SHT31;68762;51.980;5.646;2024-01-30T03:43:38;9.8;69.8
79187;SHT31;68762;51.980;5.646;2024-01-30T03:46:08;9.8;69.8
79187;SHT31;68762;51.980;5.646;2024-01-30T03:48:37;9.8;69.8
79187;SHT31;68762;51.980;5.646;2024-01-30T03:51:06;9.8;69.9
79187;SHT31;68762;51.980;5.646;2024-01-30T03:53:35;9.8;70.0
79187;SHT31;68762;51.980;5.646;2024-01-30T03:56:06;9.8;69.9
79187;SHT31;68762;51.980;5.646;2024-01-30T03:58:35;9.8;69.8
79187;SHT31;68762;51.980;5.646;2024-01-30T04:01:03;9.8;69.9
79187;SHT31;68762;51.980;5.646;2024-01-30T04:03:32;9.9;69.8
79187;SHT31;68762;51.980;5.646;2024-01-30T04:06:01;9.9;69.8
79187;SHT31;68762;51.980;5.646;2024-01-30T04:08:29;9.9;69.7
79187;SHT31;68762;51.980;5.646;2024-01-30T04:10:57;9.9;69.7
79187;SHT31;68762;51.980;5.646;2024-01-30T04:13:26;9.9;69.5
79187;SHT31;68762;51.980;5.646;2024-01-30T04:15:54;9.9;69.5
79187;SHT31;68762;51.980;5.646;2024-01-30T04:18:23;9.9;69.5
79187;SHT31;68762;51.980;5.646;2024-01-30T04:20:52;9.9;69.4
79187;SHT31;68762;51.980;5.646;2024-01-30T04:23:21;9.9;69.4
79187;SHT31;68762;51.980;5.646;2024-01-30T04:25:51;10.0;69.4
79187;SHT31;68762;51.980;5.646;2024-01-30T04:28:20;10.0;69.3
79187;SHT31;68762;51.980;5.646;2024-01-30T04:30:48;10.0;69.4
79187;SHT31;68762;51.980;5.646;2024-01-30T04:33:17;10.0;69.4
79187;SHT31;68762;51.980;5.646;2024-01-30T04:35:46;10.0;69.5
79187;SHT31;68762;51.980;5.646;2024-01-30T04:38:14;10.0;69.5
79187;SHT31;68762;51.980;5.646;2024-01-30T04:40:43;10.0;69.5
79187;SHT31;68762;51.980;5.646;2024-01-30T04:43:12;10.0;69.5
79187;SHT31;68762;51.980;5.646;2024-01-30T04:45:41;10.0;69.4
79187;SHT31;68762;51.980;5.646;2024-01-30T04:48:12;10.0;69.4
79187;SHT31;68762;51.980;5.646;2024-01-30T04:50:40;10.0;69.3
79187;SHT31;68762;51.980;5.646;2024-01-30T04:53:09;10.0;69.4
79187;SHT31;68762;51.980;5.646;2024-01-30T04:55:37;10.0;69.5
79187;SHT31;68762;51.980;5.646;2024-01-30T04:58:06;10.0;69.6
79187;SHT31;68762;51.980;5.646;2024-01-30T05:00:36;10.0;69.7
79187;SHT31;68762;51.980;5.646;2024-01-30T05:03:05;10.1;69.6
79187;SHT31;68762;51.980;5.646;2024-01-30T05:05:34;10.1;69.5
79187;SHT31;68762;51.980;5.646;2024-01-30T05:08:03;10.1;69.6
79187;SHT31;68762;51.980;5.646;2024-01-30T05:10:31;10.1;69.6
79187;SHT31;68762;51.980;5.646;2024-01-30T05:13:00;10.1;69.6
79187;SHT31;68762;51.980;5.646;2024-01-30T05:15:28;10.1;69.5
79187;SHT31;68762;51.980;5.646;2024-01-30T05:17:57;10.1;69.6
79187;SHT31;68762;51.980;5.646;2024-01-30T05:20:25;10.1;69.5
79187;SHT31;68762;51.980;5.646;2024-01-30T05:22:55;10.2;69.6
79187;SHT31;68762;51.980;5.646;2024-01-30T05:25:24;10.2;69.7
79187;SHT31;68762;51.980;5.646;2024-01-30T05:27:52;10.2;69.6
79187;SHT31;68762;51.980;5.646;2024-01-30T05:30:21;10.2;69.6
79187;SHT31;68762;51.980;5.646;2024-01-30T05:32:50;10.2;69.6
79187;SHT31;68762;51.980;5.646;2024-01-30T05:35:19;10.2;69.6
79187;SHT31;68762;51.980;5.646;2024-01-30T05:37:48;10.2;69.6
79187;SHT31;68762;51.980;5.646;2024-01-30T05:40:17;10.2;69.6
79187;SHT31;68762;51.980;5.646;2024-01-30T05:42:47;10.3;69.7
79187;SHT31;68762;51.980;5.646;2024-01-30T05:45:16;10.3;69.7
79187;SHT31;68762;51.980;5.646;2024-01-30T05:47:44;10.3;69.6
79187;SHT31;68762;51.980;5.646;2024-01-30T05:50:15;10.3;69.7
79187;SHT31;68762;51.980;5.646;2024-01-30T05:52:45;10.3;69.6
79187;SHT31;68762;51.980;5.646;2024-01-30T05:55:14;10.3;69.7
79187;SHT31;68762;51.980;5.646;2024-01-30T05:57:43;10.3;69.7
79187;SHT31;68762;51.980;5.646;2024-01-30T06:00:12;10.4;69.7
79187;SHT31;68762;51.980;5.646;2024-01-30T06:02:41;10.4;69.7
79187;SHT31;68762;51.980;5.646;2024-01-30T06:05:10;10.4;69.7
79187;SHT31;68762;51.980;5.646;2024-01-30T06:07:38;10.4;69.7
79187;SHT31;68762;51.980;5.646;2024-01-30T06:10:08;10.4;69.6
79187;SHT31;68762;51.980;5.646;2024-01-30T06:12:37;10.4;69.6
79187;SHT31;68762;51.980;5.646;2024-01-30T06:15:07;10.4;69.7
79187;SHT31;68762;51.980;5.646;2024-01-30T06:17:36;10.5;69.6
79187;SHT31;68762;51.980;5.646;2024-01-30T06:20:05;10.5;69.7
79187;SHT31;68762;51.980;5.646;2024-01-30T06:22:34;10.5;69.7
79187;SHT31;68762;51.980;5.646;2024-01-30T06:25:03;10.5;69.6
79187;SHT31;68762;51.980;5.646;2024-01-30T06:27:31;10.5;69.7
79187;SHT31;68762;51.980;5.646;2024-01-30T06:30:00;10.5;69.6
79187;SHT31;68762;51.980;5.646;2024-01-30T06:32:29;10.6;69.6
79187;SHT31;68762;51.980;5.646;2024-01-30T06:35:01;10.6;69.4
79187;SHT31;68762;51.980;5.646;2024-01-30T06:37:30;10.6;69.5
79187;SHT31;68762;51.980;5.646;2024-01-30T06:39:58;10.6;69.4
79187;SHT31;68762;51.980;5.646;2024-01-30T06:42:27;10.6;69.3
79187;SHT31;68762;51.980;5.646;2024-01-30T06:44:55;10.6;69.2
79187;SHT31;68762;51.980;5.646;2024-01-30T06:47:24;10.7;69.3
79187;SHT31;68762;51.980;5.646;2024-01-30T06:49:53;10.7;69.4
79187;SHT31;68762;51.980;5.646;2024-01-30T06:52:21;10.7;69.4
79187;SHT31;68762;51.980;5.646;2024-01-30T06:54:50;10.7;69.4
79187;SHT31;68762;51.980;5.646;2024-01-30T06:57:18;10.7;69.4
79187;SHT31;68762;51.980;5.646;2024-01-30T06:59:47;10.7;69.3
79187;SHT31;68762;51.980;5.646;2024-01-30T07:02:15;10.7;69.2
79187;SHT31;68762;51.980;5.646;2024-01-30T07:04:44;10.8;69.1
79187;SHT31;68762;51.980;5.646;2024-01-30T07:07:13;10.8;69.2
79187;SHT31;68762;51.980;5.646;2024-01-30T07:09:41;10.8;69.1
79187;SHT31;68762;51.980;5.646;2024-01-30T07:12:10;10.8;69.2
79187;SHT31;68762;51.980;5.646;2024-01-30T07:14:39;10.8;69.1
79187;SHT31;68762;51.980;5.646;2024-01-30T07:17:07;10.8;69.0
79187;SHT31;68762;51.980;5.646;2024-01-30T07:19:36;10.8;69.1
79187;SHT31;68762;51.980;5.646;2024-01-30T07:22:05;10.8;69.1
79187;SHT31;68762;51.980;5.646;2024-01-30T07:24:33;10.8;69.0
79187;SHT31;68762;51.980;5.646;2024-01-30T07:27:02;10.8;69.1
79187;SHT31;68762;51.980;5.646;2024-01-30T07:29:32;10.8;69.1
79187;SHT31;68762;51.980;5.646;2024-01-30T07:32:00;10.8;69.2
79187;SHT31;68762;51.980;5.646;2024-01-30T07:34:31;10.9;69.2
79187;SHT31;68762;51.980;5.646;2024-01-30T07:36:59;10.9;69.2
79187;SHT31;68762;51.980;5.646;2024-01-30T07:39:28;10.9;69.2
79187;SHT31;68762;51.980;5.646;2024-01-30T07:41:56;10.9;69.3
79187;SHT31;68762;51.980;5.646;2024-01-30T07:44:25;10.9;69.4
79187;SHT31;68762;51.980;5.646;2024-01-30T07:46:54;10.9;69.5
79187;SHT31;68762;51.980;5.646;2024-01-30T07:49:23;10.9;69.5
79187;SHT31;68762;51.980;5.646;2024-01-30T07:51:52;10.9;69.7
79187;SHT31;68762;51.980;5.646;2024-01-30T07:54:20;10.9;69.7
79187;SHT31;68762;51.980;5.646;2024-01-30T07:56:49;10.9;69.8
79187;SHT31;68762;51.980;5.646;2024-01-30T07:59:18;11.0;69.9
79187;SHT31;68762;51.980;5.646;2024-01-30T08:01:51;11.0;69.8
79187;SHT31;68762;51.980;5.646;2024-01-30T08:04:19;11.0;70.1
79187;SHT31;68762;51.980;5.646;2024-01-30T08:06:48;11.0;70.2
79187;SHT31;68762;51.980;5.646;2024-01-30T08:09:16;11.0;70.3
79187;SHT31;68762;51.980;5.646;2024-01-30T08:11:45;11.1;70.3
79187;SHT31;68762;51.980;5.646;2024-01-30T08:14:13;11.1;70.4
79187;SHT31;68762;51.980;5.646;2024-01-30T08:16:42;11.1;70.5
79187;SHT31;68762;51.980;5.646;2024-01-30T08:19:11;11.1;70.6
79187;SHT31;68762;51.980;5.646;2024-01-30T08:21:39;11.2;70.7
79187;SHT31;68762;51.980;5.646;2024-01-30T08:24:08;11.2;70.7
79187;SHT31;68762;51.980;5.646;2024-01-30T08:26:39;11.3;70.7
79187;SHT31;68762;51.980;5.646;2024-01-30T08:29:07;11.3;70.7
79187;SHT31;68762;51.980;5.646;2024-01-30T08:31:38;11.3;70.7
79187;SHT31;68762;51.980;5.646;2024-01-30T08:34:07;11.4;70.7
79187;SHT31;68762;51.980;5.646;2024-01-30T08:36:36;11.4;70.6
79187;SHT31;68762;51.980;5.646;2024-01-30T08:39:04;11.4;70.5
79187;SHT31;68762;51.980;5.646;2024-01-30T08:41:33;11.5;70.4
79187;SHT31;68762;51.980;5.646;2024-01-30T08:44:02;11.5;70.4
79187;SHT31;68762;51.980;5.646;2024-01-30T08:46:30;11.6;70.4
79187;SHT31;68762;51.980;5.646;2024-01-30T08:49:00;11.6;70.4
79187;SHT31;68762;51.980;5.646;2024-01-30T08:51:29;11.6;70.3
79187;SHT31;68762;51.980;5.646;2024-01-30T08:53:57;11.7;70.2
79187;SHT31;68762;51.980;5.646;2024-01-30T08:56:26;11.7;70.3
79187;SHT31;68762;51.980;5.646;2024-01-30T08:58:55;11.8;70.1
79187;SHT31;68762;51.980;5.646;2024-01-30T09:01:24;11.8;70.1
79187;SHT31;68762;51.980;5.646;2024-01-30T09:03:54;11.8;70.1
79187;SHT31;68762;51.980;5.646;2024-01-30T09:06:24;11.9;70.0
79187;SHT31;68762;51.980;5.646;2024-01-30T09:08:55;11.9;69.9
79187;SHT31;68762;51.980;5.646;2024-01-30T09:11:24;11.9;69.9
79187;SHT31;68762;51.980;5.646;2024-01-30T09:13:52;12.0;69.9
79187;SHT31;68762;51.980;5.646;2024-01-30T09:16:21;12.0;70.0
79187;SHT31;68762;51.980;5.646;2024-01-30T09:18:50;12.1;69.8
79187;SHT31;68762;51.980;5.646;2024-01-30T09:21:20;12.1;69.9
79187;SHT31;68762;51.980;5.646;2024-01-30T09:23:49;12.1;70.0
79187;SHT31;68762;51.980;5.646;2024-01-30T09:26:18;12.1;70.0
79187;SHT31;68762;51.980;5.646;2024-01-30T09:28:46;12.2;69.9
79187;SHT31;68762;51.980;5.646;2024-01-30T09:31:15;12.2;69.9
79187;SHT31;68762;51.980;5.646;2024-01-30T09:33:43;12.2;69.9
79187;SHT31;68762;51.980;5.646;2024-01-30T09:36:14;12.2;69.9
79187;SHT31;68762;51.980;5.646;2024-01-30T09:38:45;12.3;70.1
79187;SHT31;68762;51.980;5.646;2024-01-30T09:41:16;12.3;70.1
79187;SHT31;68762;51.980;5.646;2024-01-30T09:43:48;12.3;70.2
79187;SHT31;68762;51.980;5.646;2024-01-30T09:46:17;12.4;70.1
79187;SHT31;68762;51.980;5.646;2024-01-30T09:48:47;12.4;70.2
79187;SHT31;68762;51.980;5.646;2024-01-30T09:51:17;12.4;70.4
79187;SHT31;68762;51.980;5.646;2024-01-30T09:53:46;12.5;70.4
79187;SHT31;68762;51.980;5.646;2024-01-30T09:56:15;12.5;70.3
79187;SHT31;68762;51.980;5.646;2024-01-30T09:58:45;12.5;70.2
79187;SHT31;68762;51.980;5.646;2024-01-30T10:01:16;12.6;70.1
79187;SHT31;68762;51.980;5.646;2024-01-30T10:03:46;12.6;70.1
79187;SHT31;68762;51.980;5.646;2024-01-30T10:06:15;12.6;70.1
79187;SHT31;68762;51.980;5.646;2024-01-30T10:08:46;12.6;70.1
79187;SHT31;68762;51.980;5.646;2024-01-30T10:11:14;12.6;70.2
79187;SHT31;68762;51.980;5.646;2024-01-30T10:13:45;12.7;70.2
79187;SHT31;68762;51.980;5.646;2024-01-30T10:16:15;12.7;70.2
79187;SHT31;68762;51.980;5.646;2024-01-30T10:18:44;12.7;70.3
79187;SHT31;68762;51.980;5.646;2024-01-30T10:21:14;12.7;70.3
79187;SHT31;68762;51.980;5.646;2024-01-30T10:23:43;12.8;69.9
79187;SHT31;68762;51.980;5.646;2024-01-30T10:26:12;12.8;69.9
79187;SHT31;68762;51.980;5.646;2024-01-30T10:28:41;12.8;69.7
79187;SHT31;68762;51.980;5.646;2024-01-30T10:31:09;12.9;69.7
79187;SHT31;68762;51.980;5.646;2024-01-30T10:33:38;12.9;69.4
79187;SHT31;68762;51.980;5.646;2024-01-30T10:36:07;12.9;69.0
79187;SHT31;68762;51.980;5.646;2024-01-30T10:38:38;13.0;69.0
79187;SHT31;68762;51.980;5.646;2024-01-30T10:41:11;13.0;68.6
79187;SHT31;68762;51.980;5.646;2024-01-30T10:43:50;13.1;68.3
79187;SHT31;68762;51.980;5.646;2024-01-30T10:46:26;13.1;67.8
79187;SHT31;68762;51.980;5.646;2024-01-30T10:48:58;13.2;67.9
79187;SHT31;68762;51.980;5.646;2024-01-30T10:51:28;13.2;67.9
79187;SHT31;68762;51.980;5.646;2024-01-30T10:53:57;13.3;67.6
79187;SHT31;68762;51.980;5.646;2024-01-30T10:56:27;13.3;68.1
79187;SHT31;68762;51.980;5.646;2024-01-30T10:58:56;13.4;67.8
79187;SHT31;68762;51.980;5.646;2024-01-30T11:01:26;13.5;67.3
79187;SHT31;68762;51.980;5.646;2024-01-30T11:03:56;13.6;66.4
79187;SHT31;68762;51.980;5.646;2024-01-30T11:06:25;13.6;66.3
79187;SHT31;68762;51.980;5.646;2024-01-30T11:09:04;13.7;66.2
79187;SHT31;68762;51.980;5.646;2024-01-30T11:11:49;13.8;65.8
79187;SHT31;68762;51.980;5.646;2024-01-30T11:14:24;13.8;65.7
79187;SHT31;68762;51.980;5.646;2024-01-30T11:16:57;13.9;65.6
79187;SHT31;68762;51.980;5.646;2024-01-30T11:19:27;13.9;65.5
79187;SHT31;68762;51.980;5.646;2024-01-30T11:21:56;14.0;65.1
79187;SHT31;68762;51.980;5.646;2024-01-30T11:24:25;14.0;64.9
79187;SHT31;68762;51.980;5.646;2024-01-30T11:26:58;14.0;64.8
79187;SHT31;68762;51.980;5.646;2024-01-30T11:29:28;14.0;64.6
79187;SHT31;68762;51.980;5.646;2024-01-30T11:31:58;14.0;65.1
79187;SHT31;68762;51.980;5.646;2024-01-30T11:34:28;14.1;65.3
79187;SHT31;68762;51.980;5.646;2024-01-30T11:37:03;14.1;65.4
79187;SHT31;68762;51.980;5.646;2024-01-30T11:39:32;14.1;64.7
79187;SHT31;68762;51.980;5.646;2024-01-30T11:42:02;14.1;64.9
79187;SHT31;68762;51.980;5.646;2024-01-30T11:44:31;14.2;64.4
79187;SHT31;68762;51.980;5.646;2024-01-30T11:47:00;14.2;64.4
79187;SHT31;68762;51.980;5.646;2024-01-30T11:49:30;14.2;64.8
79187;SHT31;68762;51.980;5.646;2024-01-30T11:51:58;14.2;64.7
79187;SHT31;68762;51.980;5.646;2024-01-30T11:54:28;14.2;64.0
79187;SHT31;68762;51.980;5.646;2024-01-30T11:56:56;14.3;63.1
79187;SHT31;68762;51.980;5.646;2024-01-30T11:59:25;14.3;62.8
79187;SHT31;68762;51.980;5.646;2024-01-30T12:01:53;14.3;61.7
79187;SHT31;68762;51.980;5.646;2024-01-30T12:04:22;14.2;61.2
79187;SHT31;68762;51.980;5.646;2024-01-30T12:06:52;14.2;60.9
79187;SHT31;68762;51.980;5.646;2024-01-30T12:09:21;14.2;61.0
79187;SHT31;68762;51.980;5.646;2024-01-30T12:11:50;14.1;61.2
79187;SHT31;68762;51.980;5.646;2024-01-30T12:14:19;14.1;60.6
79187;SHT31;68762;51.980;5.646;2024-01-30T12:16:52;14.1;60.9
79187;SHT31;68762;51.980;5.646;2024-01-30T12:19:24;14.0;61.1
79187;SHT31;68762;51.980;5.646;2024-01-30T12:21:57;14.0;61.3
79187;SHT31;68762;51.980;5.646;2024-01-30T12:24:25;14.0;61.3
79187;SHT31;68762;51.980;5.646;2024-01-30T12:26:59;14.0;61.7
79187;SHT31;68762;51.980;5.646;2024-01-30T12:29:31;14.0;61.5
79187;SHT31;68762;51.980;5.646;2024-01-30T12:32:00;13.9;60.5
79187;SHT31;68762;51.980;5.646;2024-01-30T12:34:30;13.9;60.3
79187;SHT31;68762;51.980;5.646;2024-01-30T12:36:59;13.9;60.1
79187;SHT31;68762;51.980;5.646;2024-01-30T12:39:28;13.8;59.9
79187;SHT31;68762;51.980;5.646;2024-01-30T12:41:57;13.8;59.5
79187;SHT31;68762;51.980;5.646;2024-01-30T12:44:26;13.8;59.3
79187;SHT31;68762;51.980;5.646;2024-01-30T12:46:54;13.8;59.7
79187;SHT31;68762;51.980;5.646;2024-01-30T12:49:23;13.8;59.9
79187;SHT31;68762;51.980;5.646;2024-01-30T12:51:51;13.8;59.8
79187;SHT31;68762;51.980;5.646;2024-01-30T12:54:20;13.7;59.5
79187;SHT31;68762;51.980;5.646;2024-01-30T12:56:48;13.7;59.4
79187;SHT31;68762;51.980;5.646;2024-01-30T12:59:17;13.7;59.0
79187;SHT31;68762;51.980;5.646;2024-01-30T13:01:46;13.7;58.7
79187;SHT31;68762;51.980;5.646;2024-01-30T13:04:16;13.7;58.8
79187;SHT31;68762;51.980;5.646;2024-01-30T13:06:47;13.6;58.3
79187;SHT31;68762;51.980;5.646;2024-01-30T13:09:16;13.6;58.4
79187;SHT31;68762;51.980;5.646;2024-01-30T13:11:44;13.6;57.9
79187;SHT31;68762;51.980;5.646;2024-01-30T13:14:12;13.6;58.1
79187;SHT31;68762;51.980;5.646;2024-01-30T13:16:41;13.5;59.5
79187;SHT31;68762;51.980;5.646;2024-01-30T13:19:10;13.5;60.6
79187;SHT31;68762;51.980;5.646;2024-01-30T13:21:38;13.4;61.0
79187;SHT31;68762;51.980;5.646;2024-01-30T13:24:07;13.4;61.3
79187;SHT31;68762;51.980;5.646;2024-01-30T13:26:36;13.3;61.1
79187;SHT31;68762;51.980;5.646;2024-01-30T13:29:07;13.3;60.3
79187;SHT31;68762;51.980;5.646;2024-01-30T13:31:36;13.2;60.1
79187;SHT31;68762;51.980;5.646;2024-01-30T13:34:05;13.1;60.4
79187;SHT31;68762;51.980;5.646;2024-01-30T13:36:34;13.1;60.8
79187;SHT31;68762;51.980;5.646;2024-01-30T13:39:03;13.0;60.8
79187;SHT31;68762;51.980;5.646;2024-01-30T13:41:36;12.9;61.1
79187;SHT31;68762;51.980;5.646;2024-01-30T13:44:05;12.9;61.0
79187;SHT31;68762;51.980;5.646;2024-01-30T13:46:35;12.8;60.9
79187;SHT31;68762;51.980;5.646;2024-01-30T13:49:05;12.8;61.1
79187;SHT31;68762;51.980;5.646;2024-01-30T13:51:34;12.7;61.0
79187;SHT31;68762;51.980;5.646;2024-01-30T13:54:02;12.7;61.3
79187;SHT31;68762;51.980;5.646;2024-01-30T13:56:31;12.6;61.7
79187;SHT31;68762;51.980;5.646;2024-01-30T13:59:00;12.6;61.7
79187;SHT31;68762;51.980;5.646;2024-01-30T14:01:31;12.5;62.1
79187;SHT31;68762;51.980;5.646;2024-01-30T14:04:00;12.5;61.8
79187;SHT31;68762;51.980;5.646;2024-01-30T14:06:29;12.5;62.3
79187;SHT31;68762;51.980;5.646;2024-01-30T14:08:59;12.5;62.0
79187;SHT31;68762;51.980;5.646;2024-01-30T14:11:30;12.5;61.7
79187;SHT31;68762;51.980;5.646;2024-01-30T14:13:58;12.5;62.2
79187;SHT31;68762;51.980;5.646;2024-01-30T14:16:29;12.5;61.9
79187;SHT31;68762;51.980;5.646;2024-01-30T14:18:57;12.5;62.3
79187;SHT31;68762;51.980;5.646;2024-01-30T14:21:26;12.5;62.4
79187;SHT31;68762;51.980;5.646;2024-01-30T14:23:54;12.5;62.8
79187;SHT31;68762;51.980;5.646;2024-01-30T14:26:23;12.5;62.5
79187;SHT31;68762;51.980;5.646;2024-01-30T14:28:52;12.5;62.5
79187;SHT31;68762;51.980;5.646;2024-01-30T14:31:22;12.5;62.9
79187;SHT31;68762;51.980;5.646;2024-01-30T14:33:50;12.5;63.1
79187;SHT31;68762;51.980;5.646;2024-01-30T14:36:19;12.5;63.3
79187;SHT31;68762;51.980;5.646;2024-01-30T14:38:48;12.5;63.5
79187;SHT31;68762;51.980;5.646;2024-01-30T14:41:16;12.4;63.9
79187;SHT31;68762;51.980;5.646;2024-01-30T14:43:45;12.4;64.1
79187;SHT31;68762;51.980;5.646;2024-01-30T14:46:14;12.4;64.1
79187;SHT31;68762;51.980;5.646;2024-01-30T14:48:42;12.4;64.4
79187;SHT31;68762;51.980;5.646;2024-01-30T14:51:11;12.3;64.6
79187;SHT31;68762;51.980;5.646;2024-01-30T14:53:40;12.3;65.1
79187;SHT31;68762;51.980;5.646;2024-01-30T14:56:09;12.3;64.4
79187;SHT31;68762;51.980;5.646;2024-01-30T14:58:38;12.2;64.7
79187;SHT31;68762;51.980;5.646;2024-01-30T15:01:07;12.2;64.9
79187;SHT31;68762;51.980;5.646;2024-01-30T15:03:35;12.2;64.9
79187;SHT31;68762;51.980;5.646;2024-01-30T15:06:07;12.1;64.8
79187;SHT31;68762;51.980;5.646;2024-01-30T15:08:36;12.1;64.9
79187;SHT31;68762;51.980;5.646;2024-01-30T15:11:04;12.1;65.1
79187;SHT31;68762;51.980;5.646;2024-01-30T15:13:33;12.1;65.3
79187;SHT31;68762;51.980;5.646;2024-01-30T15:16:02;12.0;65.3
79187;SHT31;68762;51.980;5.646;2024-01-30T15:18:34;12.0;65.6
79187;SHT31;68762;51.980;5.646;2024-01-30T15:21:02;12.0;65.7
79187;SHT31;68762;51.980;5.646;2024-01-30T15:23:31;11.9;66.0
79187;SHT31;68762;51.980;5.646;2024-01-30T15:26:00;11.9;66.3
79187;SHT31;68762;51.980;5.646;2024-01-30T15:28:36;11.9;66.6
79187;SHT31;68762;51.980;5.646;2024-01-30T15:31:06;11.9;66.9
79187;SHT31;68762;51.980;5.646;2024-01-30T15:33:34;11.8;66.9
79187;SHT31;68762;51.980;5.646;2024-01-30T15:36:03;11.8;67.1
79187;SHT31;68762;51.980;5.646;2024-01-30T15:38:34;11.8;67.4
79187;SHT31;68762;51.980;5.646;2024-01-30T15:41:05;11.7;67.9
79187;SHT31;68762;51.980;5.646;2024-01-30T15:43:33;11.7;68.4
79187;SHT31;68762;51.980;5.646;2024-01-30T15:46:02;11.6;68.6
79187;SHT31;68762;51.980;5.646;2024-01-30T15:48:31;11.6;68.6
79187;SHT31;68762;51.980;5.646;2024-01-30T15:50:59;11.6;68.7
79187;SHT31;68762;51.980;5.646;2024-01-30T15:53:28;11.5;69.0
79187;SHT31;68762;51.980;5.646;2024-01-30T15:55:58;11.5;69.4
79187;SHT31;68762;51.980;5.646;2024-01-30T15:58:27;11.5;69.6
79187;SHT31;68762;51.980;5.646;2024-01-30T16:00:55;11.5;69.6
79187;SHT31;68762;51.980;5.646;2024-01-30T16:03:24;11.4;69.3
79187;SHT31;68762;51.980;5.646;2024-01-30T16:05:52;11.4;69.5
79187;SHT31;68762;51.980;5.646;2024-01-30T16:08:21;11.4;69.6
79187;SHT31;68762;51.980;5.646;2024-01-30T16:10:50;11.4;69.8
79187;SHT31;68762;51.980;5.646;2024-01-30T16:13:19;11.4;70.0
79187;SHT31;68762;51.980;5.646;2024-01-30T16:15:48;11.3;70.2